createdAt,value
2022-08-08T00:03:53.213Z,83.22001
2022-08-08T00:09:01.049Z,82.76999
2022-08-08T00:14:49.205Z,82.65
2022-08-08T00:19:56.835Z,83.54
2022-08-08T00:25:04.253Z,84.44
2022-08-08T00:30:12.558Z,83.7
2022-08-08T00:35:20.372Z,84.01
2022-08-08T00:40:29.528Z,83.8
2022-08-08T00:45:35.576Z,84.39
2022-08-08T00:50:43.411Z,82.92
2022-08-08T00:55:51.292Z,81.94
2022-08-08T01:00:59.347Z,82.41
2022-08-08T01:06:07.017Z,82.67
2022-08-08T01:11:14.712Z,81.23
2022-08-08T01:16:23.122Z,81.4
2022-08-08T01:21:31.299Z,81.34
2022-08-08T01:26:40.643Z,81.08001
2022-08-08T01:31:48.490Z,81.29001
2022-08-08T01:36:56.681Z,81.3
2022-08-08T01:42:04.973Z,81.23
2022-08-08T01:47:12.512Z,81.38
2022-08-08T01:52:19.556Z,81.77
2022-08-08T01:57:27.256Z,80.53
2022-08-08T02:02:34.745Z,81.29001
2022-08-08T02:07:41.660Z,80.52
2022-08-08T02:12:48.857Z,81.06
2022-08-08T02:17:56.725Z,82.31
2022-08-08T02:23:04.414Z,81.16
2022-08-08T02:28:11.612Z,82.07
2022-08-08T02:33:19.585Z,81.39
2022-08-08T02:38:27.874Z,81.82
2022-08-08T02:43:35.653Z,81.94
2022-08-08T02:48:43.102Z,82.38
2022-08-08T02:53:51.325Z,81.38
2022-08-08T02:58:59.113Z,81.6
2022-08-08T03:04:05.981Z,80.86
2022-08-08T03:09:13.174Z,83.08001
2022-08-08T03:14:20.691Z,82.58
2022-08-08T03:19:28.404Z,82.86
2022-08-08T03:24:36.089Z,81.77
2022-08-08T03:29:43.242Z,82.24
2022-08-08T03:34:50.803Z,83.21
2022-08-08T03:39:58.489Z,82.86
2022-08-08T03:45:06.018Z,82.92
2022-08-08T03:50:13.332Z,82.89001
2022-08-08T03:55:21.132Z,83.31
2022-08-08T04:00:28.371Z,83.7
2022-08-08T04:05:36.236Z,83.48001
2022-08-08T04:10:45.203Z,82.94001
2022-08-08T04:15:53.125Z,82.66001
2022-08-08T04:21:01.614Z,81.3
2022-08-08T04:26:08.937Z,80.26999
2022-08-08T04:31:16.700Z,80.54
2022-08-08T04:36:23.899Z,80.28
2022-08-08T04:41:31.727Z,79.88
2022-08-08T04:46:39.978Z,79.12
2022-08-08T04:51:47.421Z,79.26
2022-08-08T04:56:55.329Z,78.65
2022-08-08T05:02:03.808Z,78.08
2022-08-08T05:07:25.530Z,76.92
2022-08-08T05:12:33.805Z,76.81
2022-08-08T05:17:42.482Z,76.22
2022-08-08T05:22:50.982Z,76.02
2022-08-08T05:27:59.479Z,75.46
2022-08-08T05:33:07.468Z,73.6
2022-08-08T05:38:14.633Z,71.42
2022-08-08T05:43:22.739Z,72.11
2022-08-08T05:48:36.107Z,72.08
2022-08-08T05:53:45.072Z,71.9
2022-08-08T05:58:52.411Z,69.87
2022-08-08T06:04:01.142Z,68.83
2022-08-08T06:09:12.245Z,65.38
2022-08-08T06:14:21.030Z,66.13
2022-08-08T06:19:28.160Z,63.04
2022-08-08T06:24:34.825Z,61.97
2022-08-08T06:29:44.813Z,59.25
2022-08-08T06:34:52.385Z,59.17
2022-08-08T06:40:01.364Z,59.84
2022-08-08T06:45:09.336Z,60.51
2022-08-08T06:50:16.561Z,60.76
2022-08-08T06:55:24.889Z,60.0
2022-08-08T07:00:33.991Z,58.48
2022-08-08T07:05:49.224Z,58.84
2022-08-08T07:10:56.259Z,57.96
2022-08-08T07:16:04.064Z,56.62
2022-08-08T07:21:12.541Z,57.24
2022-08-08T07:26:20.409Z,56.7
2022-08-08T07:31:27.771Z,56.42
2022-08-08T07:36:35.447Z,56.3
2022-08-08T07:41:42.607Z,56.04
2022-08-08T07:46:49.402Z,56.66
2022-08-08T07:51:56.063Z,61.25
2022-08-08T07:57:03.612Z,59.55
2022-08-08T08:02:10.844Z,59.48
2022-08-08T08:07:19.344Z,60.78
2022-08-08T08:12:26.459Z,58.78
2022-08-08T08:17:33.048Z,59.82
2022-08-08T08:22:39.689Z,58.76
2022-08-08T08:27:47.487Z,55.12
2022-08-08T08:32:55.946Z,57.15
2022-08-08T08:38:04.440Z,55.34
2022-08-08T08:43:12.334Z,57.57
2022-08-08T08:48:19.417Z,57.24
2022-08-08T08:53:27.723Z,55.92
2022-08-08T08:58:35.797Z,54.08
2022-08-08T09:03:43.139Z,57.31
2022-08-08T09:08:50.788Z,56.37
2022-08-08T09:13:58.758Z,57.42
2022-08-08T09:19:06.919Z,56.71
2022-08-08T09:24:13.653Z,57.01
2022-08-08T09:29:21.622Z,56.71
2022-08-08T09:34:28.697Z,55.96
2022-08-08T09:39:36.531Z,55.38
2022-08-08T09:44:43.715Z,53.91
2022-08-08T09:49:51.982Z,52.77
2022-08-08T09:54:59.689Z,52.93
2022-08-08T10:00:07.121Z,54.46
2022-08-08T10:05:14.483Z,54.18
2022-08-08T10:10:21.690Z,53.6
2022-08-08T10:15:30.158Z,51.3
2022-08-08T10:20:38.547Z,50.84
2022-08-08T10:25:46.454Z,50.86
2022-08-08T10:30:54.695Z,50.8
2022-08-08T10:36:03.025Z,48.53
2022-08-08T10:41:12.257Z,49.32
2022-08-08T10:47:51.896Z,45.15
2022-08-08T10:52:57.817Z,45.09
2022-08-08T10:58:05.904Z,43.88
2022-08-08T11:03:14.070Z,44.71
2022-08-08T11:08:22.759Z,44.76
2022-08-08T11:13:30.244Z,44.89
2022-08-08T11:18:37.876Z,42.52
2022-08-08T11:23:46.154Z,43.14
2022-08-08T11:28:53.911Z,43.25
2022-08-08T11:34:01.393Z,41.58
2022-08-08T11:39:09.254Z,41.69
2022-08-08T11:44:16.222Z,40.34
2022-08-08T11:49:25.406Z,37.3
2022-08-08T11:54:32.641Z,35.8
2022-08-08T11:59:40.760Z,35.02
2022-08-08T12:04:47.604Z,35.17
2022-08-08T12:09:55.590Z,34.59
2022-08-08T12:15:03.212Z,37.64
2022-08-08T12:20:11.302Z,37.76
2022-08-08T12:25:19.509Z,38.05
2022-08-08T12:30:27.833Z,39.54
2022-08-08T12:35:35.445Z,39.28
2022-08-08T12:40:42.965Z,38.42
2022-08-08T12:45:51.249Z,38.72
2022-08-08T12:50:58.141Z,38.22
2022-08-08T12:56:05.337Z,39.3
2022-08-08T13:01:13.105Z,40.78
2022-08-08T13:06:20.385Z,42.06
2022-08-08T13:11:28.408Z,43.59
2022-08-08T13:16:35.799Z,42.97
2022-08-08T13:21:43.256Z,43.54
2022-08-08T13:26:51.288Z,43.24
2022-08-08T13:31:57.870Z,44.23
2022-08-08T13:37:04.854Z,45.14
2022-08-08T13:42:11.415Z,46.05
2022-08-08T13:50:46.549Z,45.84
2022-08-08T13:55:52.251Z,46.64
2022-08-08T14:01:00.363Z,46.77
2022-08-08T14:06:06.945Z,47.19
2022-08-08T14:11:14.833Z,47.11
2022-08-08T14:16:22.871Z,46.8
2022-08-08T14:21:29.839Z,47.82
2022-08-08T14:26:37.724Z,48.08
2022-08-08T14:31:44.520Z,48.1
2022-08-08T14:36:53.207Z,48.1
2022-08-08T14:42:03.641Z,47.9
2022-08-08T14:47:11.973Z,47.08
2022-08-08T14:52:20.221Z,47.79
2022-08-08T14:57:28.122Z,46.7
2022-08-08T15:02:34.493Z,46.68
2022-08-08T15:07:41.810Z,46.74
2022-08-08T15:12:50.731Z,45.87
2022-08-08T15:17:58.960Z,42.54
2022-08-08T15:23:05.189Z,43.4
2022-08-08T15:28:12.405Z,44.52
2022-08-08T15:33:19.503Z,46.09
2022-08-08T15:38:27.359Z,47.75
2022-08-08T15:43:34.178Z,48.96
2022-08-08T15:48:42.125Z,50.78
2022-08-08T15:53:49.526Z,51.82
2022-08-08T15:58:57.032Z,52.9
2022-08-08T16:04:04.774Z,53.79
2022-08-08T16:09:11.895Z,54.38
2022-08-08T16:14:19.594Z,54.67
2022-08-08T16:19:28.316Z,54.5
2022-08-08T16:24:34.774Z,54.36
2022-08-08T16:29:43.749Z,53.79
2022-08-08T16:34:51.729Z,54.19
2022-08-08T16:39:58.885Z,54.57
2022-08-08T16:45:05.929Z,54.64
2022-08-08T16:50:14.258Z,55.41
2022-08-08T16:55:22.235Z,56.06
2022-08-08T17:00:31.125Z,56.75
2022-08-08T17:05:38.998Z,57.02
2022-08-08T17:10:47.364Z,57.89
2022-08-08T17:15:55.505Z,57.62
2022-08-08T17:21:03.181Z,58.2
2022-08-08T17:26:10.775Z,58.04
2022-08-08T17:31:17.977Z,58.0
2022-08-08T17:36:25.172Z,58.07
2022-08-08T17:41:32.943Z,58.06
2022-08-08T17:46:40.206Z,58.45
2022-08-08T17:51:47.412Z,59.01
2022-08-08T17:56:55.355Z,58.94
2022-08-08T18:02:03.317Z,59.39
2022-08-08T18:07:11.601Z,59.37
2022-08-08T18:12:20.633Z,59.16
2022-08-08T18:17:27.961Z,59.37
2022-08-08T18:22:36.066Z,59.44
2022-08-08T18:27:43.732Z,59.42
2022-08-08T18:32:51.279Z,59.7
2022-08-08T18:37:57.969Z,60.43
2022-08-08T18:43:05.811Z,60.58
2022-08-08T18:48:13.009Z,61.39
2022-08-08T18:53:20.543Z,62.86
2022-08-08T18:58:28.478Z,64.0
2022-08-08T19:03:35.570Z,65.28
2022-08-08T19:08:43.559Z,66.89
2022-08-08T19:13:50.680Z,68.03
2022-08-08T19:18:58.734Z,68.46
2022-08-08T19:24:05.369Z,69.22
2022-08-08T19:29:14.073Z,70.42
2022-08-08T19:34:35.775Z,71.27
2022-08-08T19:39:44.550Z,72.06
2022-08-08T19:44:51.910Z,72.67
2022-08-08T19:49:59.253Z,72.97
2022-08-08T19:55:06.966Z,73.42
2022-08-08T20:00:15.732Z,73.47
2022-08-08T20:05:24.590Z,73.88
2022-08-08T20:10:32.715Z,74.28
2022-08-08T20:15:40.311Z,74.85
2022-08-08T20:20:49.198Z,75.05001
2022-08-08T20:25:55.715Z,75.74
2022-08-08T20:31:03.546Z,75.81
2022-08-08T20:36:11.043Z,76.98
2022-08-08T20:41:19.444Z,77.77
2022-08-08T20:46:26.730Z,78.16
2022-08-08T20:51:35.769Z,78.42
2022-08-08T20:56:43.688Z,78.94001
2022-08-08T21:01:50.943Z,79.41
2022-08-08T21:06:59.648Z,79.85
2022-08-08T21:12:08.266Z,81.02
2022-08-08T21:17:16.781Z,81.23
2022-08-08T21:22:23.579Z,80.88
2022-08-08T21:27:30.282Z,80.63
2022-08-08T21:32:37.980Z,80.99
2022-08-08T21:37:46.247Z,81.41001
2022-08-08T21:42:55.233Z,81.67
2022-08-08T21:48:02.162Z,82.86
2022-08-08T21:53:10.478Z,83.2
2022-08-08T21:58:18.819Z,83.76
2022-08-08T22:03:27.510Z,84.42
2022-08-08T22:08:44.956Z,84.7
2022-08-08T22:13:53.236Z,86.0
2022-08-08T22:19:00.050Z,86.1
2022-08-08T22:24:08.422Z,86.22001
2022-08-08T22:29:18.230Z,86.58999
2022-08-08T22:34:27.279Z,86.48001
2022-08-08T22:39:35.414Z,86.84
2022-08-08T22:44:43.606Z,87.66001
2022-08-08T22:49:52.191Z,87.83999
2022-08-08T22:55:00.470Z,87.64
2022-08-08T23:00:08.224Z,87.26001
2022-08-08T23:05:16.246Z,87.58
2022-08-08T23:10:22.967Z,88.18
2022-08-08T23:15:31.564Z,88.4
2022-08-08T23:20:39.632Z,88.84
2022-08-08T23:25:45.815Z,89.72
2022-08-08T23:30:53.660Z,88.8
2022-08-08T23:36:01.801Z,89.94
2022-08-08T23:41:09.936Z,89.57
2022-08-08T23:46:17.944Z,88.63
2022-08-08T23:51:26.294Z,88.84
2022-08-08T23:56:33.614Z,89.27
